createdAt,value
2023-02-14T04:05:28.997Z,22.30
2023-02-14T04:07:57.840Z,24.90
2023-02-14T04:10:24.898Z,28.17
2023-02-14T04:12:51.653Z,23.88
2023-02-14T04:15:18.368Z,21.17
2023-02-14T04:18:03.690Z,24.52
2023-02-14T04:20:30.370Z,22.40
2023-02-14T04:22:57.521Z,22.17
2023-02-14T04:25:24.116Z,20.88
2023-02-14T04:27:50.647Z,21.08
2023-02-14T04:30:18.116Z,21.00
2023-02-14T04:32:44.819Z,20.15
2023-02-14T04:35:11.541Z,20.98
2023-02-14T04:37:38.139Z,20.02
2023-02-14T04:40:05.288Z,19.65
2023-02-14T04:42:31.763Z,19.85
2023-02-14T04:44:58.828Z,20.08
2023-02-14T04:47:25.291Z,20.33
2023-02-14T04:49:51.929Z,20.35
2023-02-14T04:52:18.458Z,21.42
2023-02-14T04:54:44.904Z,20.08
2023-02-14T04:57:11.399Z,19.88
2023-02-14T04:59:37.851Z,20.25
2023-02-14T05:02:04.424Z,19.15
2023-02-14T05:04:30.969Z,19.67
2023-02-14T05:06:57.528Z,19.85
2023-02-14T05:09:24.149Z,19.23
2023-02-14T05:11:51.543Z,20.15
2023-02-14T05:14:18.100Z,19.27
2023-02-14T05:16:44.643Z,19.80
2023-02-14T05:19:11.224Z,19.15
2023-02-14T05:21:38.579Z,19.17
2023-02-14T05:24:05.179Z,21.25
2023-02-14T05:26:31.697Z,21.35
2023-02-14T05:28:59.098Z,22.00
2023-02-14T05:31:25.751Z,20.33
2023-02-14T05:33:52.288Z,19.60
2023-02-14T05:36:18.789Z,20.10
2023-02-14T05:38:45.298Z,20.27
2023-02-14T05:41:11.864Z,20.10
2023-02-14T05:43:38.709Z,21.55
2023-02-14T05:46:05.206Z,19.67
2023-02-14T05:48:31.844Z,20.45
2023-02-14T05:51:03.551Z,20.30
2023-02-14T05:53:30.603Z,20.02
2023-02-14T05:55:57.138Z,18.42
2023-02-14T05:58:23.721Z,20.23
2023-02-14T06:00:50.248Z,20.05
2023-02-14T06:03:16.715Z,20.05
2023-02-14T06:05:43.287Z,20.42
2023-02-14T06:08:09.761Z,19.67
2023-02-14T06:10:36.255Z,20.00
2023-02-14T06:13:02.920Z,20.30
2023-02-14T06:15:29.418Z,19.65
2023-02-14T06:17:57.293Z,18.48
2023-02-14T06:20:24.534Z,20.35
2023-02-14T06:22:51.525Z,22.63
2023-02-14T06:25:18.080Z,21.00
2023-02-14T06:27:44.593Z,20.52
2023-02-14T06:30:11.707Z,20.35
2023-02-14T06:32:38.245Z,19.20
2023-02-14T06:35:05.777Z,20.05
2023-02-14T06:37:32.834Z,20.85
2023-02-14T06:39:59.379Z,20.80
2023-02-14T06:42:25.888Z,21.38
2023-02-14T06:44:52.373Z,20.27
2023-02-14T06:47:19.102Z,20.70
2023-02-14T06:49:45.593Z,20.13
2023-02-14T06:52:12.101Z,20.35
2023-02-14T06:54:38.576Z,20.95
2023-02-14T06:57:05.051Z,20.88
2023-02-14T06:59:31.555Z,19.83
2023-02-14T07:01:58.154Z,21.23
2023-02-14T07:04:24.608Z,20.80
2023-02-14T07:06:51.166Z,20.67
2023-02-14T07:09:18.268Z,20.80
2023-02-14T07:11:45.561Z,20.08
2023-02-14T07:14:13.639Z,20.25
2023-02-14T07:16:40.080Z,20.50
2023-02-14T07:19:06.622Z,20.30
2023-02-14T07:21:33.080Z,21.35
2023-02-14T07:23:59.546Z,20.48
2023-02-14T07:26:26.044Z,21.08
2023-02-14T07:28:55.320Z,20.52
2023-02-14T07:31:23.472Z,20.50
2023-02-14T07:33:53.248Z,20.25
2023-02-14T07:36:19.889Z,19.88
2023-02-14T07:38:46.368Z,19.80
2023-02-14T07:41:12.826Z,19.02
2023-02-14T07:43:39.770Z,20.65
2023-02-14T07:46:06.744Z,20.02
2023-02-14T07:48:34.466Z,21.30
2023-02-14T07:51:01.707Z,20.63
2023-02-14T07:53:28.469Z,21.25
2023-02-14T07:55:55.008Z,20.52
2023-02-14T07:58:21.785Z,20.52
2023-02-14T08:00:48.314Z,21.65
2023-02-14T08:03:15.345Z,21.65
2023-02-14T08:05:42.172Z,20.95
2023-02-14T08:08:09.150Z,20.48
2023-02-14T08:10:35.716Z,20.92
2023-02-14T08:13:03.592Z,19.40
2023-02-14T08:15:53.449Z,18.60
2023-02-14T08:18:22.902Z,19.73
2023-02-14T08:20:52.213Z,20.30
2023-02-14T08:23:19.452Z,20.70
2023-02-14T08:25:48.008Z,21.13
2023-02-14T08:28:15.005Z,21.02
2023-02-14T08:30:42.572Z,19.77
2023-02-14T08:33:09.146Z,20.58
2023-02-14T08:35:36.354Z,20.95
2023-02-14T08:38:03.509Z,21.05
2023-02-14T08:40:30.243Z,23.90
2023-02-14T08:42:56.876Z,20.90
2023-02-14T08:45:23.406Z,20.52
2023-02-14T08:47:49.940Z,19.70
2023-02-14T08:50:17.501Z,21.83
2023-02-14T08:52:44.486Z,24.67
2023-02-14T08:55:13.010Z,22.55
2023-02-14T08:57:40.294Z,22.40
2023-02-14T09:00:08.198Z,19.25
2023-02-14T09:02:34.766Z,19.80
2023-02-14T09:05:01.709Z,19.73
2023-02-14T09:07:28.527Z,20.17
2023-02-14T09:09:55.115Z,20.30
2023-02-14T09:12:21.908Z,18.92
2023-02-14T09:14:48.473Z,20.95
2023-02-14T09:17:15.707Z,19.90
2023-02-14T09:19:42.327Z,20.67
2023-02-14T09:22:10.484Z,19.27
2023-02-14T09:24:38.882Z,20.30
2023-02-14T09:27:05.822Z,19.63
2023-02-14T09:29:32.963Z,20.90
2023-02-14T09:32:01.157Z,20.67
2023-02-14T09:34:46.792Z,18.58
2023-02-14T09:37:32.408Z,18.70
2023-02-14T09:39:58.927Z,18.23
2023-02-14T09:42:34.292Z,19.10
2023-02-14T09:45:04.977Z,19.40
2023-02-14T09:47:40.549Z,19.13
2023-02-14T09:50:34.357Z,20.00
2023-02-14T09:53:04.387Z,18.67
2023-02-14T09:55:38.653Z,19.02
2023-02-14T09:58:10.735Z,19.40
2023-02-14T10:00:51.531Z,19.73
2023-02-14T10:03:36.943Z,19.42
2023-02-14T10:06:24.648Z,19.13
2023-02-14T10:09:16.474Z,19.95
2023-02-14T10:11:47.846Z,20.88
2023-02-14T10:14:21.308Z,19.30
2023-02-14T10:16:49.832Z,19.70
2023-02-14T10:19:25.647Z,19.83
2023-02-14T10:22:00.498Z,18.95
2023-02-14T10:24:51.682Z,19.42
2023-02-14T10:27:39.558Z,20.13
2023-02-14T10:30:16.533Z,19.48
2023-02-14T10:32:51.381Z,18.83
2023-02-14T10:35:30.018Z,18.90
2023-02-14T10:38:11.041Z,19.02
2023-02-14T10:41:10.173Z,18.70
2023-02-14T10:43:42.744Z,19.17
2023-02-14T10:46:17.780Z,18.95
2023-02-14T10:48:59.327Z,19.25
2023-02-14T10:51:34.944Z,18.90
2023-02-14T10:54:25.821Z,19.08
2023-02-14T10:56:59.313Z,18.88
2023-02-14T10:59:30.042Z,18.52
2023-02-14T11:01:58.536Z,18.85
2023-02-14T11:04:25.232Z,19.65
2023-02-14T11:06:52.692Z,21.38
2023-02-14T11:09:20.027Z,19.73
2023-02-14T11:11:57.567Z,20.20
2023-02-14T11:14:35.747Z,19.27
2023-02-14T11:17:28.956Z,18.77
2023-02-14T11:19:58.129Z,18.42
2023-02-14T11:22:29.884Z,19.45
2023-02-14T11:25:07.225Z,19.10
2023-02-14T11:27:34.115Z,18.67
2023-02-14T11:30:02.186Z,18.55
2023-02-14T11:32:30.273Z,18.73
2023-02-14T11:35:01.348Z,18.80
2023-02-14T11:37:39.802Z,18.52
2023-02-14T11:40:07.205Z,18.83
2023-02-14T11:42:36.767Z,18.73
2023-02-14T11:45:05.215Z,19.40
2023-02-14T11:47:34.632Z,20.15
2023-02-14T11:50:10.605Z,20.10
2023-02-14T11:52:48.910Z,19.40
2023-02-14T11:55:27.414Z,19.90
2023-02-14T11:57:54.953Z,18.73
2023-02-14T12:00:22.955Z,20.33
2023-02-14T12:02:50.581Z,19.10
2023-02-14T12:05:31.156Z,19.30
2023-02-14T12:08:00.055Z,19.52
2023-02-14T12:10:31.776Z,20.55
2023-02-14T12:13:21.221Z,19.30
2023-02-14T12:15:47.683Z,18.45
2023-02-14T12:18:36.804Z,19.38
2023-02-14T12:21:36.604Z,19.55
2023-02-14T12:24:29.399Z,18.45
2023-02-14T12:27:31.263Z,19.67
2023-02-14T12:30:16.652Z,18.67
2023-02-14T12:32:54.240Z,19.27
2023-02-14T12:35:47.645Z,19.30
2023-02-14T12:38:29.041Z,20.15
2023-02-14T12:41:07.598Z,18.70
2023-02-14T12:43:45.456Z,18.33
2023-02-14T12:46:39.456Z,18.73
2023-02-14T12:49:12.075Z,18.65
2023-02-14T12:51:47.354Z,17.95
2023-02-14T12:54:48.110Z,17.38
2023-02-14T12:57:23.776Z,18.35
2023-02-14T13:00:17.561Z,18.25
2023-02-14T13:02:58.686Z,18.40
2023-02-14T13:05:46.976Z,18.02
2023-02-14T13:08:36.751Z,18.60
2023-02-14T13:11:21.542Z,18.15
2023-02-14T13:14:03.642Z,17.83
2023-02-14T13:16:40.340Z,18.27
2023-02-14T13:19:20.743Z,18.48
2023-02-14T13:21:49.329Z,18.13
2023-02-14T13:24:23.022Z,17.33
2023-02-14T13:26:55.387Z,18.20
2023-02-14T13:29:24.036Z,18.42
2023-02-14T13:31:51.987Z,17.77
2023-02-14T13:34:28.192Z,18.48
2023-02-14T13:36:57.456Z,18.27
2023-02-14T13:39:38.725Z,18.88
2023-02-14T13:42:06.648Z,18.90
2023-02-14T13:44:42.905Z,18.20
2023-02-14T13:47:20.316Z,17.52
2023-02-14T13:49:51.796Z,18.00
2023-02-14T13:52:46.815Z,19.17
2023-02-14T13:55:18.438Z,18.48
2023-02-14T13:57:45.332Z,18.95
2023-02-14T14:00:17.884Z,18.42
2023-02-14T14:02:46.806Z,17.85
2023-02-14T14:05:47.604Z,18.40
2023-02-14T14:08:20.307Z,18.65
2023-02-14T14:10:48.344Z,18.73
2023-02-14T14:13:39.883Z,18.17
2023-02-14T14:16:27.443Z,18.15
2023-02-14T14:18:55.529Z,18.02
2023-02-14T14:21:37.724Z,18.08
2023-02-14T14:24:22.758Z,18.83
2023-02-14T14:27:12.209Z,19.13
2023-02-14T14:29:51.470Z,19.33
2023-02-14T14:32:21.481Z,19.08
2023-02-14T14:34:52.295Z,19.85
2023-02-14T14:37:21.726Z,19.40
2023-02-14T14:39:56.713Z,19.52
2023-02-14T14:42:25.809Z,18.42
2023-02-14T14:45:00.229Z,18.83
2023-02-14T14:47:29.285Z,21.50
2023-02-14T14:50:00.372Z,19.42
2023-02-14T14:52:32.518Z,18.50
2023-02-14T14:54:59.898Z,19.75
2023-02-14T14:57:26.879Z,19.88
2023-02-14T15:00:24.381Z,20.38
2023-02-14T15:03:03.268Z,20.23
2023-02-14T15:05:41.368Z,20.08
2023-02-14T15:08:13.940Z,20.02
2023-02-14T15:10:40.738Z,20.05
2023-02-14T15:13:30.589Z,19.58
2023-02-14T15:15:57.413Z,18.95
2023-02-14T15:18:24.612Z,18.88
2023-02-14T15:20:52.020Z,22.33
2023-02-14T15:23:20.651Z,19.75
2023-02-14T15:25:51.945Z,20.63
2023-02-14T15:28:28.673Z,23.58
2023-02-14T15:30:57.584Z,20.48
2023-02-14T15:33:24.640Z,20.05
2023-02-14T15:35:51.318Z,19.35
2023-02-14T15:38:18.434Z,20.75
2023-02-14T15:40:45.119Z,19.88
2023-02-14T15:43:16.157Z,20.60
2023-02-14T15:45:45.023Z,19.45
2023-02-14T15:48:17.846Z,21.02
2023-02-14T15:50:50.516Z,21.65
2023-02-14T15:53:17.298Z,19.90
2023-02-14T15:55:44.598Z,19.55
2023-02-14T15:58:20.529Z,20.17
2023-02-14T16:00:47.907Z,19.55
2023-02-14T16:03:20.456Z,19.20
2023-02-14T16:05:48.264Z,19.38
2023-02-14T16:08:36.130Z,20.55
2023-02-14T16:11:13.631Z,20.45
2023-02-14T16:13:45.450Z,19.23
2023-02-14T16:16:14.527Z,20.13
2023-02-14T16:18:45.150Z,19.38
2023-02-14T16:21:31.282Z,19.58
2023-02-14T16:24:17.289Z,19.25
2023-02-14T16:26:44.547Z,18.50
2023-02-14T16:29:13.104Z,19.02
2023-02-14T16:32:06.124Z,19.65
2023-02-14T16:34:30.262Z,19.80
2023-02-14T16:36:56.761Z,19.73
2023-02-14T16:39:25.050Z,22.95
2023-02-14T16:41:53.648Z,24.73
2023-02-14T16:44:20.514Z,21.35
2023-02-14T16:46:46.997Z,21.92
2023-02-14T16:49:14.168Z,21.15
2023-02-14T16:51:45.483Z,22.05
2023-02-14T16:54:19.003Z,23.63
2023-02-14T16:56:49.053Z,25.92
2023-02-14T16:59:15.647Z,35.40
2023-02-14T17:01:42.302Z,33.28
2023-02-14T17:04:08.901Z,25.17
2023-02-14T17:06:37.675Z,23.40
2023-02-14T17:09:09.840Z,23.30
2023-02-14T17:11:41.258Z,25.40
2023-02-14T17:14:08.460Z,23.90
2023-02-14T17:16:35.135Z,23.02
2023-02-14T17:19:02.511Z,24.17
2023-02-14T17:21:29.432Z,24.55
2023-02-14T17:23:57.277Z,24.17
2023-02-14T17:26:24.180Z,24.45
2023-02-14T17:28:50.901Z,23.83
2023-02-14T17:31:18.008Z,25.00
2023-02-14T17:33:44.603Z,26.35
2023-02-14T17:36:13.722Z,28.35
2023-02-14T17:38:43.388Z,35.67
2023-02-14T17:43:37.842Z,29.50
2023-02-14T17:46:05.488Z,29.92
2023-02-14T17:48:32.082Z,27.65
2023-02-14T17:51:03.978Z,25.30
2023-02-14T17:53:30.724Z,24.25
2023-02-14T17:55:58.068Z,25.02
2023-02-14T17:58:24.602Z,23.17
2023-02-14T18:00:51.175Z,24.65
2023-02-14T18:03:17.833Z,25.83
2023-02-14T18:05:44.407Z,25.35
2023-02-14T18:08:10.943Z,24.73
2023-02-14T18:10:37.798Z,25.15
2023-02-14T18:13:04.366Z,24.50
2023-02-14T18:15:33.675Z,25.25
2023-02-14T18:18:00.280Z,25.90
2023-02-14T18:20:26.831Z,25.88
2023-02-14T18:22:53.485Z,25.48
2023-02-14T18:25:20.007Z,27.13
2023-02-14T18:27:46.528Z,27.98
2023-02-14T18:30:16.407Z,28.45
2023-02-14T18:32:42.972Z,30.88
2023-02-14T18:35:12.276Z,31.15
2023-02-14T18:37:38.826Z,29.02
2023-02-14T18:40:05.950Z,26.40
2023-02-14T18:42:32.649Z,29.58
2023-02-14T18:44:59.220Z,26.73
2023-02-14T18:47:25.856Z,29.42
2023-02-14T18:49:52.554Z,28.30
2023-02-14T18:52:19.085Z,28.85
2023-02-14T18:54:45.681Z,30.00
2023-02-14T18:57:12.260Z,29.95
2023-02-14T18:59:39.282Z,33.08
2023-02-14T19:02:06.331Z,32.58
2023-02-14T19:04:33.061Z,31.90
2023-02-14T19:06:59.853Z,31.08
2023-02-14T19:09:28.211Z,31.88
2023-02-14T19:11:59.962Z,32.70
2023-02-14T19:14:26.938Z,37.95
2023-02-14T19:16:55.412Z,34.97
2023-02-14T19:19:23.227Z,39.55
2023-02-14T19:21:50.736Z,34.80
2023-02-14T19:24:18.829Z,36.00
2023-02-14T19:26:46.393Z,31.30
2023-02-14T19:29:39.387Z,31.52
2023-02-14T19:32:09.562Z,31.90
2023-02-14T19:37:03.898Z,33.38
2023-02-14T19:39:31.564Z,31.90
2023-02-14T19:41:59.156Z,33.00
2023-02-14T19:44:26.011Z,32.47
2023-02-14T19:46:56.779Z,31.60
2023-02-14T19:49:24.868Z,34.03
2023-02-14T19:51:51.573Z,35.38
2023-02-14T19:54:18.960Z,34.45
2023-02-14T19:56:55.521Z,38.67
2023-02-14T19:59:39.097Z,33.25
2023-02-14T20:02:25.608Z,33.20
2023-02-14T20:05:07.418Z,36.30
2023-02-14T20:07:40.642Z,33.92
2023-02-14T20:10:38.196Z,35.03
2023-02-14T20:13:12.307Z,31.67
2023-02-14T20:21:37.135Z,29.48
2023-02-14T20:24:14.581Z,30.67
2023-02-14T20:26:44.340Z,31.27
2023-02-14T20:29:11.798Z,30.50
2023-02-14T20:31:47.054Z,32.35
2023-02-14T20:34:17.065Z,31.30
2023-02-14T20:37:01.332Z,33.15
2023-02-14T20:42:12.006Z,26.88
2023-02-14T20:44:47.743Z,27.95
2023-02-14T20:47:30.662Z,31.48
2023-02-14T20:50:02.730Z,28.58
2023-02-14T20:52:33.362Z,24.95
2023-02-14T20:55:04.830Z,26.40
2023-02-14T20:57:39.463Z,25.70
2023-02-14T21:00:14.419Z,25.13
2023-02-14T21:02:45.847Z,23.83
2023-02-14T21:05:20.667Z,24.50
2023-02-14T21:07:50.934Z,24.15
2023-02-14T21:10:21.632Z,24.20
2023-02-14T21:13:10.859Z,23.65
2023-02-14T21:15:37.808Z,27.65
2023-02-14T21:18:04.820Z,24.60
2023-02-14T21:20:34.669Z,23.75
2023-02-14T21:23:03.039Z,24.42
2023-02-14T21:25:32.986Z,23.53
2023-02-14T21:28:01.131Z,23.15
2023-02-14T21:30:33.274Z,23.67
2023-02-14T21:33:00.246Z,24.55
2023-02-14T21:35:26.919Z,23.88
2023-02-14T21:37:53.540Z,23.27
2023-02-14T21:40:20.349Z,21.48
2023-02-14T21:42:46.936Z,21.77
2023-02-14T21:45:32.105Z,22.00
2023-02-14T21:48:17.919Z,32.10
2023-02-14T21:50:44.646Z,25.08
2023-02-14T21:53:11.284Z,22.52
2023-02-14T21:55:38.537Z,22.55
2023-02-14T21:58:05.141Z,20.23
